Time;durP1;ratioP1;P1;durP2;ratioP2;P2;SDS_P1;SDS_P2;PMS_P1;PMS_P2;Temp;Humidity;BMP_temperature;BMP_pressure;BME280_temperature;BME280_humidity;BME280_pressure;Samples;Min_cycle;Max_cycle;Signal;HPM_P1;HPM_P2
2023/03/20 00:00:37;;;;;;;14.63;9.15;;;;;;;7.56;nan;101838.34;4993591;28;20073;-52
2023/03/20 00:03:03;;;;;;;16.77;9.20;;;;;;;7.50;nan;101853.25;4994170;28;20081;-49
2023/03/20 00:05:30;;;;;;;18.23;9.48;;;;;;;7.02;nan;101773.97;4993405;28;20085;-51
2023/03/20 00:07:56;;;;;;;16.33;9.48;;;;;;;7.31;nan;101829.72;4993190;28;20070;-49
2023/03/20 00:10:27;;;;;;;17.73;8.73;;;;;;;7.21;nan;101843.72;4992136;28;20362;-51
2023/03/20 00:12:52;;;;;;;17.80;9.68;;;;;;;7.15;nan;101835.88;5007846;28;20101;-50
2023/03/20 00:15:25;;;;;;;16.70;9.90;;;;;;;6.69;nan;101768.78;4993441;28;20125;-52
2023/03/20 00:17:50;;;;;;;17.42;10.60;;;;;;;7.11;nan;101848.97;4988683;28;20137;-52
2023/03/20 00:20:16;;;;;;;18.75;9.55;;;;;;;7.10;nan;101857.69;4972767;28;20126;-52
2023/03/20 00:22:41;;;;;;;14.98;9.48;;;;;;;6.60;nan;101776.66;4973749;28;20475;-51
2023/03/20 00:25:12;;;;;;;17.42;9.98;;;;;;;7.15;nan;101869.91;4972177;28;20125;-50
2023/03/20 00:27:38;;;;;;;18.02;9.65;;;;;;;7.06;nan;101867.34;4972178;28;20094;-51
2023/03/20 00:30:22;;;;;;;17.67;10.02;;;;;;;7.12;nan;101863.84;4973714;28;20039;-51
2023/03/20 00:32:49;;;;;;;19.27;9.73;;;;;;;6.75;nan;101803.69;4972285;28;20041;-50
2023/03/20 00:35:21;;;;;;;19.67;9.75;;;;;;;7.15;nan;101862.06;4991667;28;20070;-50
2023/03/20 00:37:47;;;;;;;16.60;9.80;;;;;;;7.01;nan;101832.41;4991569;28;20503;-55
2023/03/20 00:40:13;;;;;;;15.85;9.02;;;;;;;7.11;nan;101852.47;5007862;28;20084;-51
2023/03/20 00:42:38;;;;;;;16.85;9.60;;;;;;;7.12;nan;101856.81;4993023;28;20049;-49
2023/03/20 00:45:05;;;;;;;19.38;10.23;;;;;;;7.06;nan;101859.47;4975514;28;20117;-51
2023/03/20 00:47:34;;;;;;;15.93;10.00;;;;;;;7.05;nan;101876.06;4990881;28;20419;-53
2023/03/20 00:49:59;;;;;;;17.77;10.25;;;;;;;7.01;nan;101862.94;4992003;28;20228;-50
2023/03/20 00:52:25;;;;;;;18.17;9.43;;;;;;;6.96;nan;101830.69;4990947;28;20133;-51
2023/03/20 00:54:50;;;;;;;20.77;9.73;;;;;;;6.57;nan;101776.66;4992801;28;20454;-51
2023/03/20 00:57:20;;;;;;;16.75;10.00;;;;;;;6.93;nan;101849.00;4992572;28;20490;-50
2023/03/20 00:59:51;;;;;;;16.98;8.45;;;;;;;6.93;nan;101836.81;4975067;28;20368;-54
2023/03/20 01:02:16;;;;;;;17.10;8.55;;;;;;;6.92;nan;101837.66;4992059;28;20030;-49
2023/03/20 01:04:41;;;;;;;17.08;8.52;;;;;;;6.45;nan;101753.16;4992476;28;20036;-51
2023/03/20 01:07:11;;;;;;;16.23;8.15;;;;;;;6.90;nan;101849.88;4990274;28;20132;-56
2023/03/20 01:09:37;;;;;;;14.47;8.07;;;;;;;6.53;nan;101762.75;4975214;28;20489;-52
2023/03/20 01:12:03;;;;;;;16.25;8.38;;;;;;;6.85;nan;101825.47;4992562;28;20104;-50
2023/03/20 01:14:28;;;;;;;16.58;8.38;;;;;;;6.87;nan;101825.47;5007667;28;20030;-51
2023/03/20 01:16:54;;;;;;;15.43;8.75;;;;;;;6.59;nan;101785.41;4992245;28;20405;-54
2023/03/20 01:19:19;;;;;;;14.30;8.63;;;;;;;6.64;nan;101815.91;4992387;28;20030;-50
2023/03/20 01:21:45;;;;;;;14.23;8.07;;;;;;;6.88;nan;101869.09;4992250;28;20532;-53
2023/03/20 01:24:10;;;;;;;14.88;8.52;;;;;;;6.86;nan;101881.31;5006630;28;20041;-53
2023/03/20 01:26:38;;;;;;;12.45;8.43;;;;;;;6.49;nan;101820.25;5007309;28;20042;-49
2023/03/20 01:29:17;;;;;;;19.10;8.98;;;;;;;6.78;nan;101887.41;4990805;28;20496;-53
2023/03/20 01:31:42;;;;;;;18.95;9.75;;;;;;;6.85;nan;101897.88;4990660;28;20038;-49
2023/03/20 01:34:11;;;;;;;20.20;9.40;;;;;;;6.88;nan;101897.88;4990870;28;20042;-53
2023/03/20 01:36:37;;;;;;;14.45;8.60;;;;;;;6.93;nan;101885.66;4992528;28;20100;-51
2023/03/20 01:39:02;;;;;;;20.63;8.40;;;;;;;6.94;nan;101893.53;4991136;28;20381;-51
2023/03/20 01:41:28;;;;;;;16.67;9.02;;;;;;;6.93;nan;101886.53;4991598;28;20489;-56
2023/03/20 01:43:53;;;;;;;14.50;9.10;;;;;;;6.85;nan;101871.72;4992159;28;20026;-48
2023/03/20 01:46:23;;;;;;;16.35;8.98;;;;;;;6.48;nan;101801.06;5007242;28;20069;-51
2023/03/20 01:48:49;;;;;;;16.52;10.77;;;;;;;7.00;nan;101883.03;4992013;28;20062;-52
2023/03/20 01:51:21;;;;;;;17.67;8.75;;;;;;;7.01;nan;101871.69;4992096;28;20101;-54
2023/03/20 01:53:50;;;;;;;20.20;9.95;;;;;;;6.96;nan;101857.75;4992094;28;20417;-51
2023/03/20 01:56:17;;;;;;;14.63;9.02;;;;;;;7.09;nan;101869.06;4991048;28;20117;-53
2023/03/20 01:58:47;;;;;;;19.17;9.43;;;;;;;7.14;nan;101864.69;5008363;28;20484;-52
2023/03/20 02:01:13;;;;;;;13.55;8.35;;;;;;;7.06;nan;101854.25;4995680;28;20463;-50
2023/03/20 02:03:42;;;;;;;18.48;9.20;;;;;;;7.09;nan;101861.22;4995976;28;20438;-53
2023/03/20 02:06:07;;;;;;;15.85;9.25;;;;;;;7.17;nan;101860.31;4995727;28;20031;-51
2023/03/20 02:08:36;;;;;;;16.73;9.70;;;;;;;6.93;nan;101813.25;4995581;28;20034;-52
2023/03/20 02:11:03;;;;;;;22.00;10.13;;;;;;;7.15;nan;101843.72;5010690;28;20470;-50
2023/03/20 02:13:30;;;;;;;19.52;9.75;;;;;;;6.79;nan;101784.50;4994455;28;20392;-50
2023/03/20 02:16:02;;;;;;;15.55;9.95;;;;;;;7.05;nan;101828.94;4995603;28;20040;-50
2023/03/20 02:18:28;;;;;;;14.48;9.88;;;;;;;6.68;nan;101767.91;4995654;28;20038;-52
2023/03/20 02:21:25;;;;;;;19.08;11.23;;;;;;;6.97;nan;101829.81;5010549;28;20061;-51
2023/03/20 02:24:09;;;;;;;19.08;11.40;;;;;;;6.89;nan;101826.34;4994125;28;20103;-50
2023/03/20 02:26:49;;;;;;;17.30;10.70;;;;;;;6.78;nan;101822.00;4995289;28;20037;-49
2023/03/20 02:29:36;;;;;;;18.35;10.88;;;;;;;6.69;nan;101810.66;4994760;28;20347;-50
2023/03/20 02:32:39;;;;;;;20.90;11.63;;;;;;;6.60;nan;101801.06;4995715;28;20034;-47
2023/03/20 02:35:07;;;;;;;19.55;11.10;;;;;;;6.54;nan;101795.84;4994058;28;20030;-48
2023/03/20 02:38:03;;;;;;;22.75;11.73;;;;;;;6.55;nan;101808.06;4995243;28;20034;-51
2023/03/20 02:40:50;;;;;;;16.02;10.75;;;;;;;6.66;nan;101810.66;4994974;28;20113;-50
2023/03/20 02:43:18;;;;;;;19.55;11.27;;;;;;;6.69;nan;101818.50;4994287;28;20215;-50
2023/03/20 02:45:48;;;;;;;25.17;12.52;;;;;;;6.71;nan;101829.88;4994996;28;20379;-49
2023/03/20 02:48:31;;;;;;;19.27;11.55;;;;;;;6.13;nan;101706.09;4992379;28;20394;-48
2023/03/20 02:51:02;;;;;;;23.15;11.85;;;;;;;6.65;nan;101788.88;4995054;28;20184;-49
2023/03/20 02:53:51;;;;;;;19.67;11.20;;;;;;;6.79;nan;101796.69;4994823;28;20076;-49
2023/03/20 02:56:29;;;;;;;23.33;12.57;;;;;;;6.48;nan;101740.94;4993506;28;20737;-47
2023/03/20 02:59:27;;;;;;;17.75;11.75;;;;;;;6.89;nan;101800.19;4977149;28;20034;-49
2023/03/20 03:02:12;;;;;;;17.95;11.10;;;;;;;6.91;nan;101804.53;4993505;28;20076;-48
2023/03/20 03:04:41;;;;;;;17.88;11.20;;;;;;;6.93;nan;101805.41;4992639;28;20057;-47
2023/03/20 03:07:09;;;;;;;18.63;11.43;;;;;;;6.95;nan;101801.00;4994702;28;20034;-50
2023/03/20 03:09:40;;;;;;;20.58;12.40;;;;;;;6.83;nan;101774.03;4992485;28;20041;-50
2023/03/20 03:12:13;;;;;;;16.45;11.02;;;;;;;6.96;nan;101794.91;4993842;28;20096;-49
2023/03/20 03:14:42;;;;;;;17.48;11.65;;;;;;;6.87;nan;101773.13;4993307;28;20039;-51
2023/03/20 03:17:09;;;;;;;17.48;10.95;;;;;;;6.89;nan;101780.09;4993255;28;20034;-48
2023/03/20 03:19:36;;;;;;;23.95;12.15;;;;;;;7.00;nan;101795.78;4992502;28;20031;-49
2023/03/20 03:22:02;;;;;;;20.30;11.07;;;;;;;7.02;nan;101792.28;4993090;28;20043;-49
2023/03/20 03:24:37;;;;;;;16.77;10.50;;;;;;;7.01;nan;101768.72;4994332;28;20030;-50
2023/03/20 03:27:09;;;;;;;17.73;11.27;;;;;;;6.99;nan;101763.50;4994254;28;20499;-50
2023/03/20 03:29:36;;;;;;;18.73;10.82;;;;;;;6.88;nan;101762.66;4993508;28;20402;-49
2023/03/20 03:32:02;;;;;;;17.58;11.57;;;;;;;6.93;nan;101774.00;4992942;28;20046;-50
2023/03/20 03:34:28;;;;;;;15.73;11.10;;;;;;;6.54;nan;101687.72;4991969;28;20037;-48
2023/03/20 03:37:01;;;;;;;16.52;11.35;;;;;;;6.94;nan;101783.59;4994453;28;20046;-49
2023/03/20 03:39:45;;;;;;;18.02;10.82;;;;;;;6.50;nan;101694.72;4992765;28;20124;-52
2023/03/20 03:42:23;;;;;;;14.98;10.70;;;;;;;6.88;nan;101751.31;4993725;28;20034;-53
2023/03/20 03:45:02;;;;;;;17.85;11.93;;;;;;;6.95;nan;101777.47;4994253;28;20038;-50
2023/03/20 03:47:31;;;;;;;14.43;11.00;;;;;;;6.94;nan;101751.31;4993496;28;20034;-50
2023/03/20 03:50:10;;;;;;;20.40;11.35;;;;;;;6.44;nan;101676.44;4992847;28;20507;-49
2023/03/20 03:52:36;;;;;;;18.95;11.55;;;;;;;6.44;nan;101672.94;4991413;28;20600;-46
2023/03/20 03:55:19;;;;;;;17.25;11.45;;;;;;;6.87;nan;101753.06;4993888;28;20030;-50
2023/03/20 03:58:03;;;;;;;20.50;12.35;;;;;;;6.73;nan;101737.41;4992150;28;20038;-51
2023/03/20 04:00:31;;;;;;;18.33;12.20;;;;;;;6.57;nan;101711.25;4992520;28;20034;-51
2023/03/20 04:02:57;;;;;;;19.95;13.63;;;;;;;6.38;nan;101670.34;4992624;28;20129;-50
2023/03/20 04:05:25;;;;;;;18.98;12.50;;;;;;;6.76;nan;101739.16;4993670;28;20481;-53
2023/03/20 04:07:55;;;;;;;18.10;11.98;;;;;;;6.33;nan;101670.38;4992156;28;20397;-50
2023/03/20 04:10:20;;;;;;;18.05;11.60;;;;;;;6.22;nan;101652.06;4992057;28;20429;-52
2023/03/20 04:12:45;;;;;;;15.35;11.02;;;;;;;6.19;nan;101649.44;4993557;28;20125;-49
2023/03/20 04:15:12;;;;;;;16.92;12.07;;;;;;;6.63;nan;101733.06;4993614;28;20061;-50
2023/03/20 04:17:38;;;;;;;21.83;11.43;;;;;;;6.69;nan;101745.25;4992123;28;20462;-53
2023/03/20 04:20:04;;;;;;;17.95;11.90;;;;;;;6.45;nan;101706.09;4993374;28;20038;-50
2023/03/20 04:22:30;;;;;;;19.67;11.38;;;;;;;6.77;nan;101759.22;4992097;28;20058;-51
2023/03/20 04:24:55;;;;;;;19.88;11.45;;;;;;;6.71;nan;101744.38;4992289;28;20100;-51
2023/03/20 04:27:21;;;;;;;17.48;10.80;;;;;;;6.80;nan;101757.44;4992701;28;20486;-55
2023/03/20 04:29:46;;;;;;;15.65;11.75;;;;;;;6.85;nan;101767.91;4993307;28;20038;-51
2023/03/20 04:32:11;;;;;;;20.73;11.55;;;;;;;6.79;nan;101739.13;4991853;28;20610;-50
2023/03/20 04:34:37;;;;;;;16.13;11.80;;;;;;;6.74;nan;101720.81;4993193;28;20162;-52
2023/03/20 04:37:04;;;;;;;19.77;10.68;;;;;;;6.86;nan;101743.47;4991630;28;20470;-47
2023/03/20 04:39:29;;;;;;;17.35;11.05;;;;;;;6.34;nan;101647.69;4990479;28;20038;-48
2023/03/20 04:41:55;;;;;;;20.45;11.60;;;;;;;6.80;nan;101730.38;4991742;28;20488;-52
2023/03/20 04:44:21;;;;;;;19.67;11.85;;;;;;;6.77;nan;101733.88;4991785;28;20104;-49
2023/03/20 04:46:46;;;;;;;20.02;11.57;;;;;;;6.39;nan;101665.09;4992953;28;20065;-52
2023/03/20 04:49:12;;;;;;;17.20;11.90;;;;;;;6.44;nan;101665.09;4991824;28;20065;-50
2023/03/20 04:51:37;;;;;;;15.85;10.82;;;;;;;6.39;nan;101644.19;4991781;28;20425;-52
2023/03/20 04:54:02;;;;;;;19.52;11.80;;;;;;;6.86;nan;101733.00;4992366;28;20050;-49
2023/03/20 04:56:28;;;;;;;19.48;12.70;;;;;;;6.49;nan;101650.25;4991886;28;20034;-48
2023/03/20 04:58:53;;;;;;;18.92;11.60;;;;;;;6.47;nan;101641.56;4991318;28;20038;-52
2023/03/20 05:01:18;;;;;;;18.48;12.20;;;;;;;6.87;nan;101715.53;4991274;28;20044;-52
2023/03/20 05:03:44;;;;;;;16.85;11.45;;;;;;;6.68;nan;101692.03;4992723;28;20070;-49
2023/03/20 05:06:10;;;;;;;26.40;13.13;;;;;;;6.85;nan;101706.84;4991274;28;20030;-47
2023/03/20 05:08:35;;;;;;;21.00;12.00;;;;;;;6.76;nan;101692.03;4992500;28;20045;-51
2023/03/20 05:11:01;;;;;;;16.42;11.60;;;;;;;6.87;nan;101719.03;4991621;28;20041;-51
2023/03/20 05:13:26;;;;;;;18.73;11.65;;;;;;;6.69;nan;101693.81;4990311;28;20130;-50
2023/03/20 05:15:51;;;;;;;21.27;11.10;;;;;;;6.87;nan;101724.28;4992588;28;20034;-51
2023/03/20 05:18:17;;;;;;;19.05;11.57;;;;;;;6.45;nan;101643.31;4992449;28;20034;-50
2023/03/20 05:20:42;;;;;;;23.10;11.05;;;;;;;6.88;nan;101726.03;4992006;28;20042;-50
2023/03/20 05:23:07;;;;;;;14.43;11.45;;;;;;;6.79;nan;101706.00;4990805;28;20046;-51
2023/03/20 05:25:33;;;;;;;19.80;12.32;;;;;;;6.39;nan;101640.72;4990676;28;20037;-53
2023/03/20 05:27:58;;;;;;;20.67;11.80;;;;;;;6.43;nan;101651.16;4991598;28;20052;-50
2023/03/20 05:30:23;;;;;;;21.50;13.02;;;;;;;6.87;nan;101731.25;4991516;28;20394;-53
2023/03/20 05:32:50;;;;;;;22.50;12.05;;;;;;;6.85;nan;101726.03;4992770;28;20030;-48
2023/03/20 05:35:16;;;;;;;18.45;11.38;;;;;;;6.41;nan;101639.84;4998748;28;20034;-53
2023/03/20 05:37:42;;;;;;;16.70;11.13;;;;;;;6.87;nan;101723.41;4998671;28;20110;-50
2023/03/20 05:40:11;;;;;;;18.65;12.32;;;;;;;6.85;nan;101726.03;4998578;28;20045;-50
2023/03/20 05:42:37;;;;;;;26.55;12.80;;;;;;;6.44;nan;101665.09;4998857;28;20034;-49
2023/03/20 05:45:03;;;;;;;24.02;13.60;;;;;;;6.71;nan;101701.66;4997542;28;20041;-50
2023/03/20 05:47:28;;;;;;;22.00;12.77;;;;;;;6.49;nan;101655.50;4996716;28;20038;-49
2023/03/20 05:49:54;;;;;;;20.95;12.30;;;;;;;6.85;nan;101725.16;4998579;28;20108;-51
2023/03/20 05:52:20;;;;;;;23.55;13.23;;;;;;;6.87;nan;101726.00;4998489;28;20138;-51
2023/03/20 05:54:46;;;;;;;23.52;13.55;;;;;;;6.36;nan;101646.81;4998060;28;20070;-54
2023/03/20 05:57:11;;;;;;;23.77;12.57;;;;;;;6.79;nan;101740.00;4998521;28;20124;-48
2023/03/20 05:59:36;;;;;;;21.17;12.85;;;;;;;6.81;nan;101729.53;4997437;28;20041;-54
2023/03/20 06:02:02;;;;;;;21.35;12.18;;;;;;;6.83;nan;101719.91;4997422;28;20026;-48
2023/03/20 06:04:27;;;;;;;20.48;11.73;;;;;;;6.90;nan;101733.84;4998490;28;20478;-51
2023/03/20 06:06:52;;;;;;;19.77;12.30;;;;;;;6.88;nan;101731.25;4998625;28;20466;-52
2023/03/20 06:09:18;;;;;;;25.02;13.05;;;;;;;6.79;nan;101713.84;4998392;28;20038;-52
2023/03/20 06:11:43;;;;;;;20.52;12.15;;;;;;;6.38;nan;101649.44;4997894;28;20470;-49
2023/03/20 06:14:09;;;;;;;18.05;11.43;;;;;;;6.93;nan;101741.69;4998603;28;20089;-53
2023/03/20 06:16:34;;;;;;;17.73;11.65;;;;;;;6.98;nan;101759.13;4997095;28;20034;-51
2023/03/20 06:18:59;;;;;;;18.33;12.43;;;;;;;7.00;nan;101743.44;4998416;28;20073;-53
2023/03/20 06:21:25;;;;;;;21.23;11.48;;;;;;;6.88;nan;101743.47;4997049;28;20042;-53
2023/03/20 06:23:50;;;;;;;20.23;11.35;;;;;;;6.53;nan;101668.56;4997176;28;20458;-51
2023/03/20 06:26:16;;;;;;;20.65;11.02;;;;;;;7.00;nan;101753.91;4995573;28;20088;-50
2023/03/20 06:28:41;;;;;;;20.02;11.13;;;;;;;6.57;nan;101672.91;4997737;28;20034;-52
2023/03/20 06:31:08;;;;;;;19.27;10.85;;;;;;;7.04;nan;101753.88;4977739;28;20461;-48
2023/03/20 06:33:34;;;;;;;20.85;10.13;;;;;;;7.09;nan;101756.50;4993214;28;20034;-50
2023/03/20 06:35:59;;;;;;;15.73;9.70;;;;;;;7.16;nan;101764.31;4978040;28;20529;-46
2023/03/20 06:38:24;;;;;;;20.27;9.75;;;;;;;6.73;nan;101677.22;4976824;28;20081;-49
2023/03/20 06:40:49;;;;;;;18.40;8.98;;;;;;;7.22;nan;101752.94;4978030;28;20035;-50
2023/03/20 06:43:15;;;;;;;16.42;9.02;;;;;;;7.23;nan;101759.94;4977243;28;20031;-53
2023/03/20 06:45:40;;;;;;;19.30;9.13;;;;;;;7.30;nan;101759.88;4994691;28;20096;-52
2023/03/20 06:48:07;;;;;;;15.38;9.63;;;;;;;7.28;nan;101752.91;4994884;28;20042;-50
2023/03/20 06:50:32;;;;;;;15.55;8.30;;;;;;;7.31;nan;101766.88;4993693;28;20041;-51
2023/03/20 06:52:58;;;;;;;14.23;7.85;;;;;;;7.31;nan;101769.50;4994944;28;20058;-49
2023/03/20 06:55:23;;;;;;;14.15;8.27;;;;;;;7.32;nan;101768.63;4995018;28;20045;-49
2023/03/20 06:57:48;;;;;;;13.40;7.88;;;;;;;7.40;nan;101786.03;4995043;28;20125;-48
2023/03/20 07:00:14;;;;;;;21.20;8.90;;;;;;;6.99;nan;101702.41;4994692;28;20034;-47
2023/03/20 07:02:40;;;;;;;18.67;7.93;;;;;;;7.43;nan;101775.53;4993941;28;20504;-48
2023/03/20 07:05:05;;;;;;;14.65;8.13;;;;;;;7.43;nan;101770.31;4994678;28;20034;-48
2023/03/20 07:07:31;;;;;;;18.00;7.53;;;;;;;7.08;nan;101707.63;4994510;28;20030;-49
2023/03/20 07:09:57;;;;;;;18.60;7.22;;;;;;;6.95;nan;101678.00;4994297;28;20034;-49
2023/03/20 07:12:27;;;;;;;18.92;7.78;;;;;;;7.57;nan;101778.97;4994796;28;20045;-50
2023/03/20 07:14:52;;;;;;;11.85;6.88;;;;;;;7.12;nan;101693.66;4994674;28;20041;-52
2023/03/20 07:17:18;;;;;;;16.83;7.07;;;;;;;7.18;nan;101697.09;4996250;28;20483;-47
2023/03/20 07:19:43;;;;;;;11.55;6.70;;;;;;;7.26;nan;101697.94;4993492;28;20045;-52
2023/03/20 07:22:25;;;;;;;15.23;6.80;;;;;;;7.76;nan;101785.88;4986294;28;20133;-49
2023/03/20 07:24:51;;;;;;;21.95;7.97;;;;;;;7.83;nan;101784.94;4991390;28;20100;-49
2023/03/20 07:27:17;;;;;;;14.63;7.47;;;;;;;7.40;nan;101707.47;4993956;28;20042;-49
2023/03/20 07:29:43;;;;;;;15.88;7.40;;;;;;;7.88;nan;101794.50;4994284;28;20164;-51
2023/03/20 07:32:08;;;;;;;14.98;6.43;;;;;;;7.42;nan;101722.28;4994203;28;20030;-50
2023/03/20 07:34:33;;;;;;;13.48;6.43;;;;;;;7.68;nan;101788.50;5004455;28;20092;-50
2023/03/20 07:36:59;;;;;;;11.50;6.35;;;;;;;7.62;nan;101764.97;4995574;28;20082;-47
2023/03/20 07:39:25;;;;;;;17.75;6.90;;;;;;;7.75;nan;101785.00;4989909;28;20093;-50
2023/03/20 07:41:50;;;;;;;16.90;6.78;;;;;;;7.81;nan;101782.34;4992603;28;20035;-49
2023/03/20 07:44:18;;;;;;;15.05;6.57;;;;;;;7.73;nan;101764.91;4992074;28;20054;-52
2023/03/20 07:46:45;;;;;;;12.20;5.95;;;;;;;7.77;nan;101785.84;4993838;28;20038;-48
2023/03/20 07:49:11;;;;;;;15.00;6.50;;;;;;;7.75;nan;101794.59;4992419;28;20049;-54
2023/03/20 07:51:37;;;;;;;15.02;6.75;;;;;;;7.27;nan;101706.63;4992483;28;20038;-48
2023/03/20 07:54:02;;;;;;;16.35;5.93;;;;;;;7.58;nan;101778.97;4976322;28;20125;-51
2023/03/20 07:56:27;;;;;;;16.85;7.00;;;;;;;7.62;nan;101792.91;4973943;28;20050;-50
2023/03/20 07:58:53;;;;;;;19.15;6.72;;;;;;;7.13;nan;101717.19;4991040;28;20038;-51
2023/03/20 08:01:18;;;;;;;16.27;6.93;;;;;;;7.13;nan;101732.03;4993732;28;20389;-50
2023/03/20 08:03:43;;;;;;;14.13;7.00;;;;;;;7.45;nan;101773.78;4993147;28;20529;-51
2023/03/20 08:06:09;;;;;;;18.02;7.35;;;;;;;7.61;nan;101793.81;4993726;28;20482;-51
2023/03/20 08:08:34;;;;;;;15.50;7.15;;;;;;;7.28;nan;101724.97;4993611;28;20105;-51
2023/03/20 08:11:00;;;;;;;15.80;6.50;;;;;;;7.42;nan;101753.72;4992199;28;20049;-50
2023/03/20 08:13:26;;;;;;;16.48;7.53;;;;;;;7.33;nan;101727.56;5007863;28;20117;-49
2023/03/20 08:15:51;;;;;;;19.17;7.43;;;;;;;7.28;nan;101727.59;4993271;28;20121;-50
2023/03/20 08:18:18;;;;;;;17.50;7.50;;;;;;;7.44;nan;101745.88;4993070;28;20468;-51
2023/03/20 08:20:44;;;;;;;12.75;6.70;;;;;;;6.88;nan;101642.28;5008113;28;20048;-53
2023/03/20 08:23:10;;;;;;;14.88;7.35;;;;;;;7.25;nan;101706.66;5008206;28;20042;-50
2023/03/20 08:25:36;;;;;;;20.10;6.55;;;;;;;7.74;nan;101782.34;4991872;28;20088;-49
2023/03/20 08:28:01;;;;;;;13.13;7.07;;;;;;;7.65;nan;101774.53;4992280;28;20038;-51
2023/03/20 08:30:26;;;;;;;13.80;6.72;;;;;;;7.77;nan;101779.72;4987513;28;20043;-52
2023/03/20 08:32:52;;;;;;;17.45;7.05;;;;;;;7.89;nan;101805.88;4992539;28;20117;-52
2023/03/20 08:35:17;;;;;;;18.48;7.07;;;;;;;7.92;nan;101782.25;4991840;28;20034;-52
2023/03/20 08:37:43;;;;;;;15.80;5.93;;;;;;;7.60;nan;101714.31;4992796;28;20035;-49
2023/03/20 08:40:09;;;;;;;14.23;7.18;;;;;;;7.84;nan;101744.75;4992498;28;20057;-50
2023/03/20 08:42:34;;;;;;;17.38;8.05;;;;;;;7.76;nan;101718.56;4992588;28;20035;-49
2023/03/20 08:45:00;;;;;;;18.55;7.00;;;;;;;7.72;nan;101722.09;4989685;28;20406;-48
2023/03/20 08:47:25;;;;;;;13.07;6.35;;;;;;;7.69;nan;101706.41;4985794;28;20069;-50
2023/03/20 08:49:51;;;;;;;14.05;6.57;;;;;;;8.16;nan;101786.47;4990472;28;20038;-49
2023/03/20 08:52:17;;;;;;;15.32;6.88;;;;;;;8.26;nan;101772.41;4989889;28;20486;-49
2023/03/20 08:54:42;;;;;;;13.13;6.00;;;;;;;8.26;nan;101759.28;4991266;28;20453;-49
2023/03/20 08:57:08;;;;;;;14.02;6.88;;;;;;;8.39;nan;101780.19;4991426;28;20552;-47
2023/03/20 08:59:33;;;;;;;14.10;6.88;;;;;;;8.51;nan;101768.72;4990252;28;20124;-51
2023/03/20 09:01:59;;;;;;;17.23;6.75;;;;;;;8.59;nan;101766.00;4984383;28;20065;-49
2023/03/20 09:04:25;;;;;;;15.52;6.82;;;;;;;8.64;nan;101770.31;4977458;28;20066;-48
2023/03/20 09:06:50;;;;;;;14.25;7.20;;;;;;;8.71;nan;101766.75;4987133;28;20417;-49
2023/03/20 09:09:18;;;;;;;15.95;6.85;;;;;;;8.58;nan;101753.78;5005655;28;20038;-52
2023/03/20 09:11:44;;;;;;;14.48;7.45;;;;;;;8.33;nan;101704.16;4987697;28;20026;-54
2023/03/20 09:14:10;;;;;;;13.60;7.18;;;;;;;8.81;nan;101780.69;4990353;28;20042;-52
2023/03/20 09:16:36;;;;;;;14.27;8.40;;;;;;;8.81;nan;101783.31;4989133;28;20041;-49
2023/03/20 09:19:02;;;;;;;15.90;7.68;;;;;;;8.18;nan;101692.91;4975752;28;20041;-51
2023/03/20 09:21:27;;;;;;;13.48;7.63;;;;;;;8.49;nan;101760.00;5006668;28;20125;-49
2023/03/20 09:23:53;;;;;;;17.27;9.43;;;;;;;8.61;nan;101780.00;4989834;28;20030;-51
2023/03/20 09:26:18;;;;;;;18.80;9.60;;;;;;;8.21;nan;101712.09;4992090;28;20038;-52
2023/03/20 09:28:43;;;;;;;17.13;9.07;;;;;;;8.59;nan;101766.88;4991893;28;20053;-52
2023/03/20 09:31:09;;;;;;;17.67;9.70;;;;;;;8.31;nan;101718.19;4983408;28;20510;-53
2023/03/20 09:33:34;;;;;;;15.68;10.48;;;;;;;8.62;nan;101785.22;4987793;28;20045;-50
2023/03/20 09:36:00;;;;;;;16.45;10.23;;;;;;;8.23;nan;101696.38;4983835;28;20475;-51
2023/03/20 09:38:25;;;;;;;20.48;10.73;;;;;;;8.58;nan;101782.66;4984255;28;20031;-49
2023/03/20 09:41:02;;;;;;;22.70;11.77;;;;;;;8.49;nan;101776.56;4977503;28;20038;-52
2023/03/20 09:44:02;;;;;;;20.27;11.07;;;;;;;8.49;nan;101786.22;4987766;28;20081;-50
2023/03/20 09:46:48;;;;;;;19.83;12.27;;;;;;;8.56;nan;101764.28;4999486;28;20054;-49
2023/03/20 09:49:16;;;;;;;18.25;12.57;;;;;;;8.57;nan;101765.16;4979429;28;20506;-50
2023/03/20 09:51:56;;;;;;;22.95;13.15;;;;;;;8.13;nan;101694.69;4990603;28;20117;-47
2023/03/20 09:54:24;;;;;;;24.77;14.27;;;;;;;8.58;nan;101772.16;4981139;28;20118;-53
2023/03/20 09:56:52;;;;;;;23.63;14.88;;;;;;;8.59;nan;101763.38;4983028;28;20605;-49
2023/03/20 09:59:19;;;;;;;22.60;13.60;;;;;;;8.17;nan;101699.88;4956973;28;20577;-46
2023/03/20 10:01:51;;;;;;;28.13;14.23;;;;;;;8.58;nan;101765.13;4972907;28;20442;-52
2023/03/20 10:04:16;;;;;;;25.25;14.48;;;;;;;8.60;nan;101759.88;4988673;28;20046;-52
2023/03/20 10:06:42;;;;;;;23.30;13.65;;;;;;;8.35;nan;101680.53;4993833;28;20042;-51
2023/03/20 10:09:16;;;;;;;26.90;13.73;;;;;;;8.98;nan;101770.84;4985207;28;20382;-52
2023/03/20 10:12:02;;;;;;;24.35;14.57;;;;;;;9.13;nan;101765.44;4972275;28;20386;-49
2023/03/20 10:14:37;;;;;;;28.58;15.30;;;;;;;9.18;nan;101773.25;4986877;28;20391;-49
2023/03/20 10:17:47;;;;;;;22.77;14.88;;;;;;;9.23;nan;101761.78;4988880;28;20026;-51
2023/03/20 10:20:31;;;;;;;22.13;13.93;;;;;;;9.26;nan;101761.75;5008929;28;20045;-50
2023/03/20 10:23:06;;;;;;;19.05;12.70;;;;;;;9.16;nan;101761.91;5011310;28;20034;-52
2023/03/20 10:25:53;;;;;;;23.45;13.85;;;;;;;9.10;nan;101762.84;4988047;28;20485;-51
2023/03/20 10:28:30;;;;;;;20.30;13.88;;;;;;;8.96;nan;101714.88;4986606;28;20042;-49
2023/03/20 10:31:24;;;;;;;20.27;13.00;;;;;;;9.25;nan;101765.25;4992196;28;20053;-48
2023/03/20 10:34:32;;;;;;;20.90;13.68;;;;;;;9.23;nan;101764.41;4982583;28;20030;-52
2023/03/20 10:37:17;;;;;;;23.70;13.88;;;;;;;9.20;nan;101763.59;4989955;28;20030;-50
2023/03/20 10:39:51;;;;;;;22.85;14.55;;;;;;;9.18;nan;101750.47;4985879;28;20066;-51
2023/03/20 10:42:22;;;;;;;17.67;12.88;;;;;;;8.70;nan;101660.03;4989915;28;20043;-47
2023/03/20 10:45:01;;;;;;;21.45;13.77;;;;;;;9.03;nan;101740.16;4995025;28;20045;-48
2023/03/20 10:47:29;;;;;;;18.42;13.75;;;;;;;8.65;nan;101672.34;4980142;28;20494;-50
2023/03/20 10:49:57;;;;;;;20.60;14.82;;;;;;;8.85;nan;101695.72;4989750;28;20034;-50
2023/03/20 10:52:35;;;;;;;21.13;14.43;;;;;;;8.93;nan;101722.78;4971525;28;20117;-52
2023/03/20 10:55:20;;;;;;;25.65;15.27;;;;;;;9.05;nan;101734.00;4962657;28;20074;-47
2023/03/20 10:57:50;;;;;;;23.30;15.48;;;;;;;8.96;nan;101730.63;4986801;28;20042;-51
2023/03/20 11:00:21;;;;;;;26.50;16.05;;;;;;;8.71;nan;101668.78;4976315;28;20129;-50
2023/03/20 11:02:47;;;;;;;27.20;15.60;;;;;;;8.96;nan;101718.34;4985321;28;20527;-51
2023/03/20 11:05:29;;;;;;;21.58;15.10;;;;;;;9.09;nan;101728.69;4983744;28;20095;-48
2023/03/20 11:08:10;;;;;;;24.60;15.90;;;;;;;8.63;nan;101647.88;4976504;28;20129;-52
2023/03/20 11:10:36;;;;;;;21.85;14.57;;;;;;;9.13;nan;101723.41;4989775;28;20054;-48
2023/03/20 11:13:35;;;;;;;26.05;16.05;;;;;;;9.27;nan;101725.84;4991509;28;20042;-50
2023/03/20 11:16:20;;;;;;;25.60;14.55;;;;;;;9.33;nan;101717.91;4992929;28;20046;-49
2023/03/20 11:18:48;;;;;;;21.52;14.50;;;;;;;9.32;nan;101724.03;4979882;28;20385;-47
2023/03/20 11:21:34;;;;;;;20.30;14.70;;;;;;;9.32;nan;101731.91;4989866;28;20035;-50
2023/03/20 11:24:00;;;;;;;23.42;14.75;;;;;;;9.37;nan;101719.59;4990676;28;20471;-52
2023/03/20 11:26:31;;;;;;;22.92;16.05;;;;;;;9.43;nan;101724.75;4991226;28;20126;-53
2023/03/20 11:28:58;;;;;;;21.25;13.82;;;;;;;9.52;nan;101728.13;4991672;28;20045;-56
2023/03/20 11:31:42;;;;;;;24.08;14.45;;;;;;;9.56;nan;101710.56;4990527;28;20434;-53
2023/03/20 11:34:21;;;;;;;23.48;14.45;;;;;;;9.27;nan;101663.69;4991489;28;20144;-54
2023/03/20 11:36:58;;;;;;;20.48;13.02;;;;;;;9.22;nan;101639.25;4992051;28;20056;-54
2023/03/20 11:39:26;;;;;;;19.15;13.02;;;;;;;9.56;nan;101728.97;4977600;28;20061;-49
2023/03/20 11:41:53;;;;;;;21.80;14.85;;;;;;;9.45;nan;101717.72;4973157;28;20145;-55
2023/03/20 11:44:26;;;;;;;25.67;13.13;;;;;;;9.41;nan;101724.78;4971592;28;20385;-47
2023/03/20 11:47:16;;;;;;;22.50;14.25;;;;;;;9.27;nan;101721.47;4972623;28;20041;-49